createdAt,value
2023-05-20T00:00:28.905Z,13.36
2023-05-20T00:01:28.894Z,13.37
2023-05-20T00:02:29.092Z,13.37
2023-05-20T00:03:28.970Z,13.43
2023-05-20T00:04:28.896Z,13.49
2023-05-20T00:05:28.859Z,13.49
2023-05-20T00:06:28.902Z,13.47
2023-05-20T00:07:28.850Z,13.49
2023-05-20T00:08:28.820Z,13.47
2023-05-20T00:09:28.802Z,13.43
2023-05-20T00:10:28.817Z,13.47
2023-05-20T00:11:28.826Z,13.49
2023-05-20T00:12:28.769Z,13.52
2023-05-20T00:13:28.802Z,13.52
2023-05-20T00:14:28.761Z,13.51
2023-05-20T00:15:28.747Z,13.49
2023-05-20T00:16:28.780Z,13.47
2023-05-20T00:17:28.748Z,13.49
2023-05-20T00:18:28.707Z,13.49
2023-05-20T00:19:28.787Z,13.47
2023-05-20T00:20:28.725Z,13.55
2023-05-20T00:21:28.703Z,13.49
2023-05-20T00:22:28.659Z,13.55
2023-05-20T00:23:28.666Z,13.51
2023-05-20T00:24:28.646Z,13.52
2023-05-20T00:25:28.665Z,13.52
2023-05-20T00:26:28.644Z,13.52
2023-05-20T00:27:28.625Z,13.54
2023-05-20T00:28:28.605Z,13.52
2023-05-20T00:29:28.599Z,13.51
2023-05-20T00:30:28.576Z,13.46
2023-05-20T00:31:28.625Z,13.49
2023-05-20T00:32:28.664Z,13.47
2023-05-20T00:33:28.542Z,13.51
2023-05-20T00:34:28.531Z,13.49
2023-05-20T00:35:28.563Z,13.44
2023-05-20T00:36:28.577Z,13.46
2023-05-20T00:37:28.502Z,13.54
2023-05-20T00:38:28.485Z,13.43
2023-05-20T00:39:28.496Z,13.49
2023-05-20T00:40:28.494Z,13.43
2023-05-20T00:41:28.464Z,13.52
2023-05-20T00:42:28.462Z,13.49
2023-05-20T00:43:28.437Z,13.49
2023-05-20T00:44:28.453Z,13.49
2023-05-20T00:45:28.429Z,13.41
2023-05-20T00:46:28.497Z,13.38
2023-05-20T00:47:28.407Z,13.32
2023-05-20T00:48:28.375Z,13.41
2023-05-20T00:49:28.444Z,13.38
2023-05-20T00:50:28.368Z,13.30
2023-05-20T00:51:28.346Z,13.29
2023-05-20T00:52:28.336Z,13.33
2023-05-20T00:53:28.370Z,13.37
2023-05-20T00:54:28.344Z,13.25
2023-05-20T00:55:28.302Z,13.20
2023-05-20T00:56:28.310Z,13.29
2023-05-20T00:57:28.289Z,13.24
2023-05-20T00:58:28.311Z,13.20
2023-05-20T00:59:28.252Z,13.17
2023-05-20T01:00:28.251Z,13.15
2023-05-20T01:01:28.318Z,13.07
2023-05-20T01:02:28.358Z,13.09
2023-05-20T01:03:28.433Z,13.04
2023-05-20T01:04:28.202Z,13.03
2023-05-20T01:05:28.189Z,13.02
2023-05-20T01:06:28.248Z,12.93
2023-05-20T01:07:28.184Z,12.81
2023-05-20T01:08:28.170Z,12.79
2023-05-20T01:09:28.157Z,12.87
2023-05-20T01:10:28.143Z,12.87
2023-05-20T01:11:28.120Z,12.78
2023-05-20T01:12:28.294Z,12.67
2023-05-20T01:13:28.108Z,12.66
2023-05-20T01:14:28.108Z,12.77
2023-05-20T01:15:28.078Z,12.74
2023-05-20T01:16:28.109Z,12.69
2023-05-20T01:17:28.088Z,12.81
2023-05-20T01:18:28.043Z,12.78
2023-05-20T01:19:28.150Z,12.79
2023-05-20T01:20:28.022Z,12.77
2023-05-20T01:21:28.042Z,12.79
2023-05-20T01:22:28.017Z,12.81
2023-05-20T01:23:27.990Z,12.74
2023-05-20T01:24:27.982Z,12.70
2023-05-20T01:25:27.972Z,12.77
2023-05-20T01:26:27.985Z,12.70
2023-05-20T01:27:27.966Z,12.66
2023-05-20T01:28:27.932Z,12.64
2023-05-20T01:29:27.922Z,12.62
2023-05-20T01:30:27.938Z,12.59
2023-05-20T01:31:27.996Z,12.64
2023-05-20T01:32:27.912Z,12.64
2023-05-20T01:33:27.879Z,12.56
2023-05-20T01:34:27.867Z,12.59
2023-05-20T01:35:27.857Z,12.54
2023-05-20T01:36:27.906Z,12.56
2023-05-20T01:37:27.840Z,12.62
2023-05-20T01:38:27.825Z,12.60
2023-05-20T01:39:27.820Z,12.60
2023-05-20T01:40:27.817Z,12.56
2023-05-20T01:41:27.804Z,12.69
2023-05-20T01:42:27.807Z,12.70
2023-05-20T01:43:27.780Z,12.75
2023-05-20T01:44:27.758Z,12.69
2023-05-20T01:45:27.746Z,12.71
2023-05-20T01:46:27.835Z,12.74
2023-05-20T01:47:27.769Z,12.67
2023-05-20T01:48:27.719Z,12.57
2023-05-20T01:49:27.707Z,12.57
2023-05-20T01:50:27.697Z,12.51
2023-05-20T01:51:27.772Z,12.49
2023-05-20T01:52:27.675Z,12.52
2023-05-20T01:53:27.657Z,12.54
2023-05-20T01:54:27.668Z,12.49
2023-05-20T01:55:27.635Z,12.54
2023-05-20T01:56:27.646Z,12.54
2023-05-20T01:57:27.621Z,12.56
2023-05-20T01:58:27.601Z,12.45
2023-05-20T01:59:27.624Z,12.54
2023-05-20T02:00:27.591Z,12.46
2023-05-20T02:01:27.631Z,12.46
2023-05-20T02:02:27.732Z,12.51
2023-05-20T02:03:27.627Z,12.42
2023-05-20T02:04:27.568Z,12.42
2023-05-20T02:05:27.601Z,12.39
2023-05-20T02:06:27.535Z,12.39
2023-05-20T02:07:27.508Z,12.44
2023-05-20T02:08:27.507Z,12.42
2023-05-20T02:09:27.497Z,12.38
2023-05-20T02:10:27.471Z,12.45
2023-05-20T02:11:27.458Z,12.31
2023-05-20T02:12:27.452Z,12.38
2023-05-20T02:13:27.475Z,12.33
2023-05-20T02:14:27.445Z,12.27
2023-05-20T02:15:27.446Z,12.26
2023-05-20T02:16:27.472Z,12.39
2023-05-20T02:17:27.444Z,12.34
2023-05-20T02:18:27.412Z,12.29
2023-05-20T02:19:27.425Z,12.27
2023-05-20T02:20:27.371Z,12.34
2023-05-20T02:21:27.361Z,12.30
2023-05-20T02:22:27.352Z,12.31
2023-05-20T02:23:27.360Z,12.34
2023-05-20T02:24:27.319Z,12.37
2023-05-20T02:25:27.318Z,12.38
2023-05-20T02:26:27.305Z,12.39
2023-05-20T02:27:27.307Z,12.33
2023-05-20T02:28:27.289Z,12.27
2023-05-20T02:29:27.282Z,12.37
2023-05-20T02:30:27.262Z,12.33
2023-05-20T02:31:27.247Z,12.34
2023-05-20T02:32:27.242Z,12.38
2023-05-20T02:33:27.408Z,12.39
2023-05-20T02:34:27.355Z,12.52
2023-05-20T02:35:27.207Z,12.45
2023-05-20T02:36:27.192Z,12.46
2023-05-20T02:37:27.197Z,12.45
2023-05-20T02:38:27.175Z,12.45
2023-05-20T02:39:27.159Z,12.48
2023-05-20T02:40:27.150Z,12.49
2023-05-20T02:41:27.150Z,12.45
2023-05-20T02:42:27.145Z,12.49
2023-05-20T02:43:27.139Z,12.56
2023-05-20T02:44:27.108Z,12.51
2023-05-20T02:45:27.099Z,12.54
2023-05-20T02:46:27.136Z,12.51
2023-05-20T02:47:27.082Z,12.48
2023-05-20T02:48:27.075Z,12.51
2023-05-20T02:49:27.055Z,12.63
2023-05-20T02:50:27.056Z,12.62
2023-05-20T02:51:27.048Z,12.60
2023-05-20T02:52:27.060Z,12.57
2023-05-20T02:53:27.006Z,12.63
2023-05-20T02:54:27.007Z,12.56
2023-05-20T02:55:26.979Z,12.60
2023-05-20T02:56:26.986Z,12.59
2023-05-20T02:57:26.959Z,12.57
2023-05-20T02:58:26.953Z,12.54
2023-05-20T02:59:26.948Z,12.59
2023-05-20T03:00:26.942Z,12.60
2023-05-20T03:01:26.953Z,12.57
2023-05-20T03:02:26.953Z,12.70
2023-05-20T03:03:26.894Z,12.60
2023-05-20T03:04:26.887Z,12.59
2023-05-20T03:05:26.972Z,12.56
2023-05-20T03:06:26.923Z,12.56
2023-05-20T03:07:26.858Z,12.63
2023-05-20T03:08:26.846Z,12.57
2023-05-20T03:09:26.826Z,12.66
2023-05-20T03:10:26.831Z,12.59
2023-05-20T03:11:26.818Z,12.64
2023-05-20T03:12:26.796Z,12.66
2023-05-20T03:13:26.813Z,12.66
2023-05-20T03:14:26.795Z,12.71
2023-05-20T03:15:26.770Z,12.70
2023-05-20T03:16:26.791Z,12.67
2023-05-20T03:17:26.752Z,12.82
2023-05-20T03:18:26.732Z,12.78
2023-05-20T03:19:26.840Z,12.77
2023-05-20T03:20:26.711Z,12.79
2023-05-20T03:21:26.754Z,12.79
2023-05-20T03:22:26.726Z,12.85
2023-05-20T03:23:26.672Z,12.88
2023-05-20T03:24:26.688Z,12.88
2023-05-20T03:25:26.655Z,12.84
2023-05-20T03:26:26.644Z,12.81
2023-05-20T03:27:26.660Z,12.82
2023-05-20T03:28:26.641Z,12.78
2023-05-20T03:29:26.654Z,12.78
2023-05-20T03:30:26.733Z,12.78
2023-05-20T03:31:26.606Z,12.84
2023-05-20T03:32:26.585Z,12.79
2023-05-20T03:33:26.601Z,12.78
2023-05-20T03:34:26.558Z,12.71
2023-05-20T03:35:26.568Z,12.66
2023-05-20T03:36:26.526Z,12.57
2023-05-20T03:37:26.541Z,12.54
2023-05-20T03:38:26.619Z,12.57
2023-05-20T03:39:26.500Z,12.66
2023-05-20T03:40:26.786Z,12.59
2023-05-20T03:41:26.477Z,12.69
2023-05-20T03:42:26.477Z,12.56
2023-05-20T03:43:26.509Z,12.56
2023-05-20T03:44:26.481Z,12.54
2023-05-20T03:45:26.445Z,12.54
2023-05-20T03:46:26.464Z,12.67
2023-05-20T03:47:26.466Z,12.67
2023-05-20T03:48:26.409Z,12.64
2023-05-20T03:49:26.435Z,12.67
2023-05-20T03:50:26.377Z,12.64
2023-05-20T03:51:26.362Z,12.81
2023-05-20T03:52:26.424Z,12.75
2023-05-20T03:53:26.365Z,12.79
2023-05-20T03:54:26.367Z,12.84
2023-05-20T03:55:26.325Z,12.82
2023-05-20T03:56:26.315Z,12.82
2023-05-20T03:57:26.322Z,12.85
2023-05-20T03:58:26.310Z,12.84
2023-05-20T03:59:26.279Z,12.87
2023-05-20T04:00:26.276Z,12.85
2023-05-20T04:01:26.254Z,12.88
2023-05-20T04:02:26.398Z,12.89
2023-05-20T04:03:26.317Z,12.87
2023-05-20T04:04:26.223Z,12.89
2023-05-20T04:05:26.217Z,12.89
2023-05-20T04:06:26.266Z,12.88
2023-05-20T04:07:26.212Z,12.85
2023-05-20T04:08:26.193Z,12.87
2023-05-20T04:09:26.169Z,12.87
2023-05-20T04:10:26.181Z,12.89
2023-05-20T04:11:26.337Z,12.92
2023-05-20T04:12:26.172Z,12.96
2023-05-20T04:13:26.121Z,12.95
2023-05-20T04:14:26.115Z,12.97
2023-05-20T04:15:26.108Z,12.88
2023-05-20T04:16:26.152Z,12.92
2023-05-20T04:17:26.142Z,12.89
2023-05-20T04:18:26.082Z,12.96
2023-05-20T04:19:26.169Z,12.92
2023-05-20T04:20:26.100Z,12.96
2023-05-20T04:21:26.057Z,12.88
2023-05-20T04:22:26.032Z,13.00
2023-05-20T04:23:26.018Z,13.02
2023-05-20T04:24:26.011Z,13.02
2023-05-20T04:25:26.019Z,12.99
2023-05-20T04:26:26.016Z,13.02
2023-05-20T04:27:25.984Z,12.93
2023-05-20T04:28:25.962Z,13.02
2023-05-20T04:29:25.952Z,12.96
2023-05-20T04:30:25.961Z,13.00
2023-05-20T04:31:25.984Z,12.92
2023-05-20T04:32:25.977Z,12.99
2023-05-20T04:33:25.909Z,13.02
2023-05-20T04:34:25.901Z,12.93
2023-05-20T04:35:26.036Z,13.04
2023-05-20T04:36:25.876Z,12.95
2023-05-20T04:37:25.867Z,13.04
2023-05-20T04:38:28.144Z,13.07
2023-05-20T04:39:25.860Z,13.11
2023-05-20T04:40:25.887Z,13.07
2023-05-20T04:41:25.828Z,13.11
2023-05-20T04:42:25.893Z,13.07
2023-05-20T04:43:25.827Z,13.04
2023-05-20T04:44:25.828Z,13.02
2023-05-20T04:45:25.824Z,12.93
2023-05-20T04:46:25.835Z,12.92
2023-05-20T04:47:25.902Z,12.88
2023-05-20T04:48:25.824Z,12.88
2023-05-20T04:49:25.829Z,12.87
2023-05-20T04:50:25.740Z,12.89
2023-05-20T04:51:25.727Z,12.96
2023-05-20T04:52:25.705Z,13.00
2023-05-20T04:53:25.810Z,13.00
2023-05-20T04:54:25.708Z,12.99
2023-05-20T04:55:25.675Z,13.00
2023-05-20T04:56:25.673Z,13.11
2023-05-20T04:57:25.662Z,13.07
2023-05-20T04:58:25.686Z,13.12
2023-05-20T04:59:25.632Z,13.18
2023-05-20T05:00:25.618Z,13.17
2023-05-20T05:01:25.653Z,13.22
2023-05-20T05:02:25.599Z,13.11
2023-05-20T05:03:25.615Z,13.22
2023-05-20T05:04:25.655Z,13.18
2023-05-20T05:05:25.567Z,13.12
2023-05-20T05:06:25.562Z,13.14
2023-05-20T05:07:25.565Z,13.03
2023-05-20T05:08:25.551Z,13.03
2023-05-20T05:09:25.547Z,13.11
2023-05-20T05:10:25.518Z,13.06
2023-05-20T05:11:25.504Z,13.11
2023-05-20T05:12:25.524Z,13.07
2023-05-20T05:13:25.501Z,13.02
2023-05-20T05:14:25.533Z,13.03
2023-05-20T05:15:25.460Z,13.09
2023-05-20T05:16:25.504Z,13.09
2023-05-20T05:17:25.469Z,13.03
2023-05-20T05:18:25.450Z,13.14
2023-05-20T05:19:25.458Z,13.12
2023-05-20T05:20:25.413Z,13.14
2023-05-20T05:21:25.404Z,13.17
2023-05-20T05:22:25.422Z,13.03
2023-05-20T05:23:25.410Z,13.07
2023-05-20T05:24:25.365Z,13.09
2023-05-20T05:25:25.349Z,13.04
2023-05-20T05:26:25.355Z,12.93
2023-05-20T05:27:25.394Z,12.88
2023-05-20T05:28:25.329Z,12.87
2023-05-20T05:29:25.322Z,12.82
2023-05-20T05:30:25.320Z,12.88
2023-05-20T05:31:25.292Z,12.82
2023-05-20T05:32:25.402Z,12.92
2023-05-20T05:33:25.284Z,12.88
2023-05-20T05:34:25.271Z,12.85
2023-05-20T05:35:25.248Z,12.89
2023-05-20T05:36:25.265Z,12.89
2023-05-20T05:37:25.228Z,12.97
2023-05-20T05:38:25.213Z,12.99
2023-05-20T05:39:25.200Z,13.00
2023-05-20T05:40:25.190Z,12.99
2023-05-20T05:41:25.197Z,13.06
2023-05-20T05:42:25.173Z,13.21
2023-05-20T05:43:25.160Z,13.21
2023-05-20T05:44:25.147Z,13.15
2023-05-20T05:45:25.155Z,13.22
2023-05-20T05:46:25.218Z,13.21
2023-05-20T05:47:25.136Z,13.17
2023-05-20T05:48:25.109Z,13.15
2023-05-20T05:49:25.105Z,13.20
2023-05-20T05:50:25.103Z,13.24
2023-05-20T05:51:25.066Z,13.22
2023-05-20T05:52:25.065Z,13.21
2023-05-20T05:53:25.050Z,13.27
2023-05-20T05:54:25.044Z,13.24
2023-05-20T05:55:25.066Z,13.33
2023-05-20T05:56:25.018Z,13.36
2023-05-20T05:57:25.009Z,13.36
2023-05-20T05:58:25.009Z,13.27
2023-05-20T05:59:25.007Z,13.36
2023-05-20T06:00:24.995Z,13.37
2023-05-20T06:01:24.998Z,13.18
2023-05-20T06:02:25.065Z,13.37
2023-05-20T06:03:25.020Z,13.21
2023-05-20T06:04:25.073Z,13.27
2023-05-20T06:05:25.832Z,13.29
2023-05-20T06:06:24.910Z,13.25
2023-05-20T06:07:24.902Z,13.20
2023-05-20T06:08:24.887Z,13.32
2023-05-20T06:09:24.903Z,13.32
2023-05-20T06:10:24.895Z,13.36
2023-05-20T06:11:24.853Z,13.36
2023-05-20T06:12:24.846Z,13.44
2023-05-20T06:13:24.852Z,13.52
2023-05-20T06:14:24.846Z,13.52
2023-05-20T06:15:24.812Z,13.56
2023-05-20T06:16:24.902Z,13.51
2023-05-20T06:17:24.813Z,13.49
2023-05-20T06:18:24.835Z,13.44
2023-05-20T06:19:24.837Z,13.43
2023-05-20T06:20:24.755Z,13.47
2023-05-20T06:21:24.754Z,13.49
2023-05-20T06:22:24.748Z,13.47
2023-05-20T06:23:24.787Z,13.49
2023-05-20T06:24:24.923Z,13.49
2023-05-20T06:25:24.706Z,13.47
2023-05-20T06:26:24.692Z,13.46
2023-05-20T06:27:24.701Z,13.46
2023-05-20T06:28:24.684Z,13.47
2023-05-20T06:29:24.660Z,13.44
2023-05-20T06:30:24.651Z,13.52
2023-05-20T06:31:24.683Z,13.49
2023-05-20T06:32:24.694Z,13.52
2023-05-20T06:33:24.616Z,13.52
2023-05-20T06:34:24.623Z,13.52
2023-05-20T06:35:24.614Z,13.55
2023-05-20T06:36:24.593Z,13.47
2023-05-20T06:37:25.224Z,13.55
2023-05-20T06:38:24.580Z,13.61
2023-05-20T06:39:24.562Z,13.49
2023-05-20T06:40:24.539Z,13.52
2023-05-20T06:41:24.552Z,13.62
2023-05-20T06:42:24.524Z,13.62
2023-05-20T06:43:24.543Z,13.59
2023-05-20T06:44:24.512Z,13.62
2023-05-20T06:45:24.490Z,13.59
2023-05-20T06:46:24.524Z,13.61
2023-05-20T06:47:24.512Z,13.74
2023-05-20T06:48:24.459Z,13.74
2023-05-20T06:49:24.445Z,13.65
2023-05-20T06:50:24.468Z,13.67
2023-05-20T06:51:24.477Z,13.81
2023-05-20T06:52:24.434Z,13.70
2023-05-20T06:53:24.407Z,13.69
2023-05-20T06:54:24.396Z,13.79
2023-05-20T06:55:24.413Z,13.84
2023-05-20T06:56:24.401Z,13.95
2023-05-20T06:57:24.364Z,13.91
2023-05-20T06:58:24.352Z,13.95
2023-05-20T06:59:24.340Z,13.91
2023-05-20T07:00:24.363Z,13.96
2023-05-20T07:01:24.365Z,13.89
2023-05-20T07:02:24.358Z,13.99
2023-05-20T07:03:24.378Z,13.92
2023-05-20T07:04:24.282Z,14.01
2023-05-20T07:05:24.388Z,14.06
2023-05-20T07:06:24.312Z,14.02
2023-05-20T07:07:24.260Z,13.88
2023-05-20T07:08:24.237Z,13.88
2023-05-20T07:09:24.225Z,13.99
2023-05-20T07:10:24.248Z,14.04
2023-05-20T07:11:24.230Z,14.06
2023-05-20T07:12:24.188Z,14.04
2023-05-20T07:13:24.234Z,14.07
2023-05-20T07:14:24.197Z,14.07
2023-05-20T07:15:24.190Z,14.10
2023-05-20T07:16:24.220Z,13.98
2023-05-20T07:17:24.198Z,14.01
2023-05-20T07:18:24.145Z,13.95
2023-05-20T07:19:24.232Z,13.88
2023-05-20T07:20:24.135Z,13.81
2023-05-20T07:21:24.096Z,13.81
2023-05-20T07:22:24.106Z,13.89
2023-05-20T07:23:24.073Z,13.87
2023-05-20T07:24:24.127Z,13.89
2023-05-20T07:25:24.055Z,13.95
2023-05-20T07:26:24.039Z,13.92
2023-05-20T07:27:24.034Z,13.98
2023-05-20T07:28:24.032Z,13.94
2023-05-20T07:29:24.027Z,13.95
2023-05-20T07:30:24.047Z,13.91
2023-05-20T07:31:24.034Z,13.89
2023-05-20T07:32:24.024Z,13.99
2023-05-20T07:33:23.963Z,14.01
2023-05-20T07:34:23.996Z,14.02
2023-05-20T07:35:23.940Z,14.07
2023-05-20T07:36:23.933Z,14.09
2023-05-20T07:37:23.922Z,14.13
2023-05-20T07:38:23.950Z,14.14
2023-05-20T07:39:23.896Z,14.14
2023-05-20T07:40:24.099Z,14.12
2023-05-20T07:41:23.882Z,14.10
2023-05-20T07:42:23.891Z,14.19
2023-05-20T07:43:23.884Z,14.17
2023-05-20T07:44:23.882Z,14.16
2023-05-20T07:45:23.834Z,14.27
2023-05-20T07:46:23.848Z,14.24
2023-05-20T07:47:23.812Z,14.38
2023-05-20T07:48:23.810Z,14.38
2023-05-20T07:49:23.835Z,14.46
2023-05-20T07:50:23.818Z,14.44
2023-05-20T07:51:23.766Z,14.46
2023-05-20T07:52:23.756Z,14.44
2023-05-20T07:53:23.904Z,14.39
2023-05-20T07:54:23.749Z,14.52
2023-05-20T07:55:23.742Z,14.50
2023-05-20T07:56:23.722Z,14.49
2023-05-20T07:57:23.725Z,14.54
2023-05-20T07:58:23.706Z,14.68
2023-05-20T07:59:23.688Z,14.62
2023-05-20T08:00:23.711Z,14.64
2023-05-20T08:01:23.682Z,14.64
2023-05-20T08:02:23.708Z,14.71
2023-05-20T08:03:23.653Z,14.81
2023-05-20T08:04:23.675Z,14.84
2023-05-20T08:05:23.622Z,14.84
2023-05-20T08:06:23.600Z,14.94
2023-05-20T08:07:23.603Z,14.99
2023-05-20T08:08:23.616Z,15.01
2023-05-20T08:09:23.577Z,15.01
2023-05-20T08:10:23.615Z,15.08
2023-05-20T08:11:23.566Z,15.08
2023-05-20T08:12:23.551Z,15.12
2023-05-20T08:13:23.529Z,15.17
2023-05-20T08:14:23.555Z,15.17
2023-05-20T08:15:23.550Z,15.27
2023-05-20T08:16:23.590Z,15.28
2023-05-20T08:17:23.663Z,15.21
2023-05-20T08:18:23.471Z,15.28
2023-05-20T08:19:23.568Z,15.43
2023-05-20T08:20:23.450Z,15.45
2023-05-20T08:21:23.483Z,15.43
2023-05-20T08:22:23.431Z,15.48
2023-05-20T08:23:23.421Z,15.54
2023-05-20T08:24:23.410Z,15.57
2023-05-20T08:25:23.408Z,15.63
2023-05-20T08:26:23.428Z,15.59
2023-05-20T08:27:23.377Z,15.46
2023-05-20T08:28:23.386Z,15.48
2023-05-20T08:29:23.354Z,15.56
2023-05-20T08:30:23.349Z,15.60
2023-05-20T08:31:23.489Z,15.57
2023-05-20T08:32:23.348Z,15.45
2023-05-20T08:33:23.310Z,15.60
2023-05-20T08:34:23.297Z,15.57
2023-05-20T08:35:24.847Z,15.75
2023-05-20T08:36:23.278Z,15.72
2023-05-20T08:37:23.264Z,15.84
2023-05-20T08:38:23.253Z,15.88
2023-05-20T08:39:23.246Z,15.75
2023-05-20T08:40:23.250Z,15.68
2023-05-20T08:41:23.224Z,15.76
2023-05-20T08:42:23.233Z,15.76
2023-05-20T08:43:23.206Z,15.82
2023-05-20T08:44:23.216Z,15.86
2023-05-20T08:45:23.203Z,15.92
2023-05-20T08:46:23.237Z,15.88
2023-05-20T08:47:23.160Z,15.81
2023-05-20T08:48:23.156Z,15.96
2023-05-20T08:49:23.174Z,15.94
2023-05-20T08:50:23.129Z,15.81
2023-05-20T08:51:23.888Z,15.86
2023-05-20T08:52:23.103Z,15.86
2023-05-20T08:53:23.128Z,15.93
2023-05-20T08:54:23.099Z,15.94
2023-05-20T08:55:23.092Z,15.84
2023-05-20T08:56:23.059Z,15.75
2023-05-20T08:57:23.079Z,15.75
2023-05-20T08:58:23.092Z,15.68
2023-05-20T08:59:23.078Z,15.61
2023-05-20T09:00:23.017Z,15.59
2023-05-20T09:01:23.064Z,15.52
2023-05-20T09:02:23.056Z,15.54
2023-05-20T09:03:23.041Z,15.48
2023-05-20T09:04:23.027Z,15.51
2023-05-20T09:05:22.991Z,15.45
2023-05-20T09:06:22.958Z,15.54
2023-05-20T09:07:22.947Z,15.56
2023-05-20T09:08:22.953Z,15.61
2023-05-20T09:09:22.940Z,15.60
2023-05-20T09:10:22.909Z,15.63
2023-05-20T09:11:22.913Z,15.57
2023-05-20T09:12:22.906Z,15.46
2023-05-20T09:13:23.898Z,15.46
2023-05-20T09:14:22.939Z,15.42
2023-05-20T09:15:22.869Z,15.46
2023-05-20T09:16:22.939Z,15.43
2023-05-20T09:17:22.909Z,15.46
2023-05-20T09:18:22.829Z,15.51
2023-05-20T09:19:24.309Z,15.49
2023-05-20T09:20:22.801Z,15.57
2023-05-20T09:21:22.793Z,15.48
2023-05-20T09:22:22.812Z,15.45
2023-05-20T09:23:22.777Z,15.42
2023-05-20T09:24:22.756Z,15.48
2023-05-20T09:25:23.996Z,15.54
2023-05-20T09:26:22.772Z,15.61
2023-05-20T09:27:22.749Z,15.57
2023-05-20T09:28:22.720Z,15.60
2023-05-20T09:29:22.706Z,15.57
2023-05-20T09:30:22.708Z,15.57
2023-05-20T09:31:22.732Z,15.60
2023-05-20T09:32:22.726Z,15.57
2023-05-20T09:33:22.668Z,15.61
2023-05-20T09:34:22.643Z,15.59
2023-05-20T09:35:22.642Z,15.74
2023-05-20T09:36:22.656Z,15.76
2023-05-20T09:37:22.642Z,15.85
2023-05-20T09:38:22.600Z,15.86
2023-05-20T09:39:22.597Z,15.86
2023-05-20T09:40:22.577Z,15.85
2023-05-20T09:41:22.597Z,15.76
2023-05-20T09:42:22.562Z,15.81
2023-05-20T09:43:22.556Z,15.76
2023-05-20T09:44:22.536Z,15.86
2023-05-20T09:45:22.550Z,15.93
2023-05-20T09:46:22.577Z,15.89
2023-05-20T09:47:22.510Z,15.94
2023-05-20T09:48:22.503Z,16.00
2023-05-20T09:49:22.486Z,15.89
2023-05-20T09:50:22.543Z,15.94
2023-05-20T09:51:22.464Z,16.04
2023-05-20T09:52:22.461Z,15.93
2023-05-20T09:53:22.448Z,15.97
2023-05-20T09:54:22.461Z,15.94
2023-05-20T09:55:22.470Z,15.88
2023-05-20T09:56:22.419Z,16.01
2023-05-20T09:57:22.402Z,16.00
2023-05-20T09:58:22.393Z,15.96
2023-05-20T09:59:22.394Z,15.94
2023-05-20T10:00:22.381Z,15.85
2023-05-20T10:01:22.423Z,15.84
2023-05-20T10:02:22.449Z,15.81
2023-05-20T10:03:22.442Z,15.81
2023-05-20T10:04:22.370Z,15.84
2023-05-20T10:05:22.320Z,15.86
2023-05-20T10:06:22.305Z,15.85
2023-05-20T10:07:34.072Z,15.82
2023-05-20T10:08:23.367Z,15.84
2023-05-20T10:09:22.294Z,15.84
2023-05-20T10:10:22.315Z,15.84
2023-05-20T10:11:22.251Z,15.76
2023-05-20T10:12:22.244Z,15.81
2023-05-20T10:13:22.251Z,15.81
2023-05-20T10:14:22.233Z,15.94
2023-05-20T10:15:22.208Z,15.84
2023-05-20T10:16:22.275Z,15.97
2023-05-20T10:17:22.237Z,15.85
2023-05-20T10:18:22.216Z,15.89
2023-05-20T10:19:22.242Z,15.89
2023-05-20T10:20:22.160Z,15.93
2023-05-20T10:21:22.144Z,15.94
2023-05-20T10:22:22.166Z,15.96
2023-05-20T10:23:22.153Z,15.93
2023-05-20T10:24:22.153Z,16.01
2023-05-20T10:25:22.099Z,16.00
2023-05-20T10:26:22.097Z,16.01
2023-05-20T10:27:22.098Z,16.03
2023-05-20T10:28:22.068Z,16.01
2023-05-20T10:29:22.061Z,16.00
2023-05-20T10:30:22.049Z,16.16
2023-05-20T10:31:22.048Z,16.15
2023-05-20T10:32:22.076Z,16.15
2023-05-20T10:33:22.056Z,16.40
2023-05-20T10:34:22.030Z,16.49
2023-05-20T10:35:21.991Z,16.63
2023-05-20T10:36:21.982Z,16.74
2023-05-20T10:37:21.995Z,16.73
2023-05-20T10:38:21.960Z,16.77
2023-05-20T10:39:21.964Z,16.86
2023-05-20T10:40:21.938Z,16.96
2023-05-20T10:41:21.959Z,16.99
2023-05-20T10:42:21.928Z,17.03
2023-05-20T10:43:22.265Z,17.08
2023-05-20T10:44:21.898Z,17.10
2023-05-20T10:45:21.894Z,17.20
2023-05-20T10:46:34.815Z,17.23
2023-05-20T10:47:25.913Z,17.28
2023-05-20T10:48:21.944Z,17.30
2023-05-20T10:49:24.439Z,17.29
2023-05-20T10:50:22.903Z,17.28
2023-05-20T10:51:21.835Z,17.38
2023-05-20T10:52:21.808Z,17.38
2023-05-20T10:53:32.252Z,17.38
2023-05-20T10:54:22.781Z,17.43
2023-05-20T10:55:21.840Z,17.29
2023-05-20T10:56:21.792Z,17.26
2023-05-20T10:57:21.777Z,17.26
2023-05-20T10:58:21.741Z,17.20
2023-05-20T10:59:21.761Z,17.23
2023-05-20T11:00:21.715Z,17.15
2023-05-20T11:01:21.798Z,17.17
2023-05-20T11:02:21.697Z,17.22
2023-05-20T11:03:21.790Z,17.28
2023-05-20T11:04:21.674Z,17.13
2023-05-20T11:05:21.665Z,17.15
2023-05-20T11:06:21.711Z,16.96
2023-05-20T11:07:21.669Z,17.04
2023-05-20T11:08:28.894Z,17.04
2023-05-20T11:09:22.638Z,17.11
2023-05-20T11:10:21.630Z,17.22
2023-05-20T11:11:21.649Z,17.18
2023-05-20T11:12:21.595Z,17.17
2023-05-20T11:13:21.620Z,17.17
2023-05-20T11:14:21.593Z,17.30
2023-05-20T11:15:21.567Z,17.40
2023-05-20T11:16:21.570Z,17.44
2023-05-20T11:17:21.588Z,17.63
2023-05-20T11:18:21.530Z,17.36
2023-05-20T11:19:21.692Z,17.43
2023-05-20T11:20:21.503Z,17.51
2023-05-20T11:21:21.491Z,17.43
2023-05-20T11:22:21.499Z,17.40
2023-05-20T11:23:21.467Z,17.41
2023-05-20T11:24:21.514Z,17.44
2023-05-20T11:25:21.494Z,17.57
2023-05-20T11:26:21.435Z,17.59
2023-05-20T11:27:21.426Z,17.55
2023-05-20T11:28:21.454Z,17.67
2023-05-20T11:29:21.433Z,17.66
2023-05-20T11:30:21.395Z,17.66
2023-05-20T11:31:21.381Z,17.59
2023-05-20T11:32:21.561Z,17.63
2023-05-20T11:33:21.458Z,17.44
2023-05-20T11:34:23.332Z,17.43
2023-05-20T11:35:21.340Z,17.44
2023-05-20T11:37:22.316Z,17.54
2023-05-20T11:38:21.350Z,17.50
2023-05-20T11:39:21.313Z,17.55
2023-05-20T11:40:21.281Z,17.62
2023-05-20T11:41:21.276Z,17.53
2023-05-20T11:42:21.259Z,17.59
2023-05-20T11:43:21.297Z,17.55
2023-05-20T11:44:21.235Z,17.66
2023-05-20T11:45:21.229Z,17.76
2023-05-20T11:46:21.336Z,17.81
2023-05-20T11:47:22.606Z,17.91
2023-05-20T11:48:21.239Z,18.09
2023-05-20T11:49:21.186Z,18.15
2023-05-20T11:50:21.197Z,18.22
2023-05-20T11:51:21.179Z,18.28
2023-05-20T11:52:21.196Z,18.29
2023-05-20T11:53:21.136Z,18.18
2023-05-20T11:54:21.160Z,18.21
2023-05-20T11:55:21.117Z,18.15
2023-05-20T11:56:21.128Z,18.09
2023-05-20T11:57:21.111Z,18.15
2023-05-20T11:58:21.094Z,18.10
2023-05-20T11:59:21.078Z,18.22
2023-05-20T12:00:21.064Z,18.10
2023-05-20T12:01:22.648Z,17.97
2023-05-20T12:02:21.089Z,18.04
2023-05-20T12:03:21.201Z,18.09
2023-05-20T12:04:21.161Z,17.95
2023-05-20T12:05:21.022Z,18.02
2023-05-20T12:06:21.069Z,18.02
2023-05-20T12:07:20.991Z,18.02
2023-05-20T12:08:20.986Z,17.99
2023-05-20T12:09:20.977Z,18.03
2023-05-20T12:10:21.010Z,18.09
2023-05-20T12:11:20.980Z,18.10
2023-05-20T12:12:20.945Z,18.10
2023-05-20T12:13:20.945Z,18.29
2023-05-20T12:14:20.915Z,18.19
2023-05-20T12:15:20.921Z,18.15
2023-05-20T12:16:20.981Z,18.27
2023-05-20T12:17:20.886Z,18.24
2023-05-20T12:18:20.878Z,18.25
2023-05-20T12:19:20.896Z,18.31
2023-05-20T12:20:20.908Z,18.21
2023-05-20T12:21:20.845Z,18.24
2023-05-20T12:22:20.873Z,18.12
2023-05-20T12:23:20.819Z,18.13
2023-05-20T12:24:20.836Z,18.15
2023-05-20T12:25:20.797Z,18.10
2023-05-20T12:26:20.831Z,18.12
2023-05-20T12:27:20.774Z,18.10
2023-05-20T12:28:20.762Z,18.19
2023-05-20T12:29:20.776Z,18.12
2023-05-20T12:30:20.766Z,18.09
2023-05-20T12:31:20.774Z,18.13
2023-05-20T12:32:20.728Z,18.10
2023-05-20T12:33:20.731Z,18.27
2023-05-20T12:34:20.754Z,18.25
2023-05-20T12:35:20.684Z,18.24
2023-05-20T12:36:20.682Z,18.29
2023-05-20T12:37:20.661Z,18.19
2023-05-20T12:38:20.695Z,18.22
2023-05-20T12:39:20.664Z,18.17
2023-05-20T12:40:20.634Z,18.22
2023-05-20T12:41:20.662Z,18.21
2023-05-20T12:42:20.641Z,18.29
2023-05-20T12:43:20.614Z,18.29
2023-05-20T12:44:20.599Z,18.33
2023-05-20T12:45:20.575Z,18.24
2023-05-20T12:46:20.601Z,18.18
2023-05-20T12:47:20.582Z,18.27
2023-05-20T12:48:20.607Z,18.31
2023-05-20T12:49:20.540Z,18.36
2023-05-20T12:50:20.548Z,18.37
2023-05-20T12:51:20.515Z,18.39
2023-05-20T12:52:22.749Z,18.29
2023-05-20T12:53:20.523Z,18.33